Time;durP1;ratioP1;P1;durP2;ratioP2;P2;SDS_P1;SDS_P2;PMS_P1;PMS_P2;Temp;Humidity;BMP_temperature;BMP_pressure;BME280_temperature;BME280_humidity;BME280_pressure;Samples;Min_cycle;Max_cycle;Signal;HPM_P1;HPM_P2
2022/01/09 00:00:56;;;;;;;10.13;5.13;;;;;;;4.55;100.00;98406.97;4992023;28;20026;-80
2022/01/09 00:03:21;;;;;;;11.07;5.25;;;;;;;4.56;100.00;98414.09;4979609;28;20030;-79
2022/01/09 00:05:47;;;;;;;8.88;5.50;;;;;;;4.57;100.00;98409.53;5003850;28;20502;-79
2022/01/09 00:08:12;;;;;;;10.30;6.10;;;;;;;4.57;100.00;98423.06;5007614;28;20041;-78
2022/01/09 00:10:45;;;;;;;8.60;5.60;;;;;;;4.56;100.00;98422.22;4998515;28;20460;-79
2022/01/09 00:13:10;;;;;;;11.88;6.10;;;;;;;4.53;100.00;98430.66;5016239;28;20040;-79
2022/01/09 00:15:36;;;;;;;10.38;6.53;;;;;;;4.54;100.00;98426.94;5001997;28;20034;-79
2022/01/09 00:18:01;;;;;;;8.43;6.20;;;;;;;4.53;100.00;98430.66;5011423;28;20362;-79
2022/01/09 00:20:26;;;;;;;11.40;7.30;;;;;;;4.51;100.00;98431.78;5002559;28;20629;-79
2022/01/09 00:22:52;;;;;;;10.00;6.63;;;;;;;4.54;100.00;98442.31;4995441;28;20529;-80
2022/01/09 00:25:22;;;;;;;11.52;7.53;;;;;;;4.56;100.00;98445.78;5014925;28;20486;-79
2022/01/09 00:27:49;;;;;;;16.63;8.32;;;;;;;4.59;100.00;98461.72;5009000;28;20041;-79
2022/01/09 00:30:17;;;;;;;16.02;8.70;;;;;;;4.60;100.00;98463.44;5008565;28;20026;-79
2022/01/09 00:32:43;;;;;;;13.60;7.97;;;;;;;4.63;100.00;98475.88;4991450;28;20101;-79
2022/01/09 00:35:09;;;;;;;16.58;8.77;;;;;;;4.63;100.00;98486.72;5000486;28;20034;-79
2022/01/09 00:37:35;;;;;;;14.88;8.40;;;;;;;4.62;100.00;98487.69;5013773;28;20038;-79
2022/01/09 00:40:01;;;;;;;46.13;10.25;;;;;;;4.58;100.00;98496.09;5010181;28;20027;-79
2022/01/09 00:42:27;;;;;;;26.17;9.65;;;;;;;4.59;100.00;98500.53;5012150;28;20100;-79
2022/01/09 00:44:52;;;;;;;20.88;9.05;;;;;;;4.66;100.00;98517.09;5015317;28;20509;-79
2022/01/09 00:47:18;;;;;;;18.08;9.00;;;;;;;4.75;100.00;98515.38;5010315;28;20666;-79
2022/01/09 00:49:44;;;;;;;16.15;8.55;;;;;;;4.81;100.00;98527.50;5000550;28;20050;-79
2022/01/09 00:52:10;;;;;;;19.77;8.32;;;;;;;4.83;100.00;98529.06;5011164;28;20101;-80
2022/01/09 00:54:35;;;;;;;25.40;10.15;;;;;;;4.97;100.00;98542.19;5001532;28;20046;-79
2022/01/09 00:57:01;;;;;;;19.23;9.25;;;;;;;4.97;100.00;98533.22;5015940;28;20423;-79
2022/01/09 00:59:26;;;;;;;15.65;7.13;;;;;;;4.97;100.00;98553.03;5010396;28;20041;-79
2022/01/09 01:01:51;;;;;;;15.73;7.40;;;;;;;4.97;100.00;98550.31;5019220;28;20069;-78
2022/01/09 01:04:17;;;;;;;13.68;4.55;;;;;;;4.94;100.00;98575.00;5011399;28;20045;-78
2022/01/09 01:06:42;;;;;;;4.60;2.70;;;;;;;4.92;100.00;98590.56;5032993;28;20481;-79
2022/01/09 01:09:08;;;;;;;10.90;3.35;;;;;;;4.94;100.00;98599.41;5012065;28;20028;-79
2022/01/09 01:11:33;;;;;;;11.43;3.10;;;;;;;4.83;100.00;98594.13;5002880;28;20046;-79
2022/01/09 01:13:59;;;;;;;11.05;3.38;;;;;;;4.89;100.00;98611.69;5018266;28;20496;-79
2022/01/09 01:16:24;;;;;;;15.18;3.25;;;;;;;4.91;100.00;98620.53;5017025;28;20030;-79
2022/01/09 01:18:50;;;;;;;29.58;4.70;;;;;;;4.92;100.00;98627.66;5007888;28;20551;-79
2022/01/09 01:21:15;;;;;;;27.67;3.13;;;;;;;4.92;100.00;98630.38;5018163;28;20044;-79
2022/01/09 01:23:41;;;;;;;35.50;3.92;;;;;;;4.82;100.00;98643.06;5019739;28;20042;-79
2022/01/09 01:26:07;;;;;;;18.13;2.58;;;;;;;4.85;100.00;98649.06;5013567;28;20159;-79
2022/01/09 01:28:32;;;;;;;33.40;3.40;;;;;;;4.72;100.00;98651.16;5001664;28;20493;-79
2022/01/09 01:30:58;;;;;;;32.10;4.25;;;;;;;4.73;100.00;98664.59;5012885;28;20521;-79
2022/01/09 01:33:24;;;;;;;54.17;5.63;;;;;;;4.69;100.00;98675.84;5013072;28;20410;-79
2022/01/09 01:35:50;;;;;;;50.28;5.30;;;;;;;4.75;100.00;98688.84;5009246;28;20057;-79
2022/01/09 01:38:15;;;;;;;31.55;3.47;;;;;;;4.70;100.00;98682.97;4989046;28;20053;-79
2022/01/09 01:40:41;;;;;;;58.90;4.15;;;;;;;4.74;100.00;98682.56;5015249;28;20053;-79
2022/01/09 01:43:07;;;;;;;43.50;5.38;;;;;;;4.69;100.00;98694.81;4997077;28;20548;-79
2022/01/09 01:45:32;;;;;;;56.08;5.32;;;;;;;4.71;100.00;98709.97;5001609;28;20413;-79
2022/01/09 01:48:05;;;;;;;50.70;5.07;;;;;;;4.67;100.00;98723.91;5017221;28;20033;-79
2022/01/09 01:50:35;;;;;;;54.70;4.15;;;;;;;4.68;100.00;98731.91;5011253;28;20482;-79
2022/01/09 01:53:01;;;;;;;52.78;4.22;;;;;;;4.66;100.00;98727.63;5017077;28;20493;-79
2022/01/09 01:55:28;;;;;;;44.05;3.75;;;;;;;4.73;100.00;98724.22;5000365;28;20124;-79
2022/01/09 01:57:54;;;;;;;60.08;4.90;;;;;;;4.73;100.00;98751.31;5015109;28;20137;-79
2022/01/09 02:00:20;;;;;;;91.38;5.88;;;;;;;4.76;100.00;98755.63;5002717;28;20038;-79
2022/01/09 02:02:46;;;;;;;71.60;6.68;;;;;;;4.74;100.00;98761.19;5002805;28;20471;-79
2022/01/09 02:05:11;;;;;;;70.35;5.18;;;;;;;4.76;100.00;98745.63;5000373;28;20073;-79
2022/01/09 02:07:38;;;;;;;68.90;5.15;;;;;;;4.76;100.00;98758.34;5004728;28;20054;-79
2022/01/09 02:10:08;;;;;;;97.97;6.63;;;;;;;4.78;100.00;98767.19;5012091;28;20053;-79
2022/01/09 02:12:37;;;;;;;82.05;5.68;;;;;;;4.84;100.00;98784.75;5013144;28;20034;-79
2022/01/09 02:15:26;;;;;;;66.47;5.40;;;;;;;4.86;100.00;98780.91;5011459;28;20030;-79
2022/01/09 02:17:52;;;;;;;82.10;6.97;;;;;;;4.93;100.00;98789.38;4999607;28;20085;-79
2022/01/09 02:20:17;;;;;;;69.22;5.57;;;;;;;4.86;100.00;98793.63;5024115;28;20068;-79
2022/01/09 02:22:43;;;;;;;90.68;8.45;;;;;;;4.85;100.00;98808.16;5015183;28;20022;-79
2022/01/09 02:25:10;;;;;;;76.95;6.35;;;;;;;4.83;100.00;98813.72;5005829;28;20026;-79
2022/01/09 02:27:35;;;;;;;53.28;4.65;;;;;;;4.86;100.00;98812.59;4998053;28;20518;-79
2022/01/09 02:30:03;;;;;;;70.95;5.40;;;;;;;4.83;100.00;98819.16;5006855;28;20134;-79
2022/01/09 02:32:28;;;;;;;60.47;4.50;;;;;;;4.91;100.00;98822.03;5001278;28;20062;-79
2022/01/09 02:34:54;;;;;;;82.07;5.00;;;;;;;4.85;100.00;98840.69;4996833;28;20101;-79
2022/01/09 02:37:19;;;;;;;113.90;7.60;;;;;;;4.81;100.00;98834.69;5011835;28;20038;-79
2022/01/09 02:39:45;;;;;;;71.28;8.23;;;;;;;4.83;100.00;98832.69;5000994;28;20039;-79
2022/01/09 02:42:19;;;;;;;84.68;7.57;;;;;;;4.89;100.00;98836.75;5011559;28;20454;-79
2022/01/09 02:44:44;;;;;;;97.10;6.82;;;;;;;4.88;100.00;98849.41;4984528;28;20045;-79
2022/01/09 02:47:10;;;;;;;78.10;6.20;;;;;;;4.90;100.00;98849.28;5002161;28;20026;-79
2022/01/09 02:49:35;;;;;;;101.70;7.82;;;;;;;4.94;100.00;98859.72;5013300;28;20082;-79
2022/01/09 02:52:10;;;;;;;107.70;8.32;;;;;;;4.93;100.00;98868.84;4992377;28;20137;-79
2022/01/09 02:57:20;;;;;;;85.47;7.65;;;;;;;4.93;100.00;98874.28;5027491;28;20245;-79
2022/01/09 02:59:45;;;;;;;85.85;8.68;;;;;;;4.96;100.00;98884.00;4996807;28;20069;-79
2022/01/09 03:02:11;;;;;;;85.03;7.80;;;;;;;4.94;100.00;98894.13;4983463;28;20117;-79
2022/01/09 03:04:36;;;;;;;101.63;9.18;;;;;;;4.97;100.00;98900.16;5006389;28;20441;-79
2022/01/09 03:07:02;;;;;;;94.50;8.73;;;;;;;5.07;100.00;98907.47;4996169;28;20055;-79
2022/01/09 03:09:27;;;;;;;76.10;7.57;;;;;;;5.05;100.00;98923.88;4996272;28;20042;-79
2022/01/09 03:11:53;;;;;;;99.00;8.73;;;;;;;5.07;100.00;98926.47;5009844;28;20042;-79
2022/01/09 03:14:18;;;;;;;92.18;7.45;;;;;;;5.11;100.00;98931.47;4998144;28;20026;-79
2022/01/09 03:16:44;;;;;;;90.78;8.40;;;;;;;5.05;100.00;98931.16;5001922;28;20375;-79
2022/01/09 03:19:09;;;;;;;106.28;8.18;;;;;;;5.03;100.00;98938.56;5007422;28;20038;-79
2022/01/09 03:21:36;;;;;;;79.32;8.13;;;;;;;5.03;100.00;98936.69;4997930;28;20061;-78
2022/01/09 03:24:01;;;;;;;83.45;7.57;;;;;;;5.05;100.00;98953.72;5014292;28;20042;-79
2022/01/09 03:26:27;;;;;;;110.78;8.57;;;;;;;5.03;100.00;98954.84;5008126;28;20475;-79
2022/01/09 03:28:52;;;;;;;113.68;8.38;;;;;;;5.00;100.00;98955.09;4998129;28;20030;-79
2022/01/09 03:31:18;;;;;;;97.15;8.32;;;;;;;5.00;100.00;98963.22;4999204;28;20155;-79
2022/01/09 03:33:43;;;;;;;82.93;6.65;;;;;;;4.92;100.00;98955.75;5014711;28;20413;-78
2022/01/09 03:36:09;;;;;;;99.20;8.27;;;;;;;4.80;100.00;98952.25;5025328;28;20061;-79
2022/01/09 03:38:34;;;;;;;90.47;6.55;;;;;;;4.96;100.00;98987.06;4998840;28;20034;-79
2022/01/09 03:41:00;;;;;;;99.80;7.20;;;;;;;4.96;100.00;98989.75;5005921;28;20069;-79
2022/01/09 03:43:25;;;;;;;55.00;5.88;;;;;;;4.95;100.00;98990.75;5009321;28;20032;-78
2022/01/09 03:45:50;;;;;;;72.32;6.65;;;;;;;4.97;100.00;98980.66;4992102;28;20030;-79
2022/01/09 03:48:16;;;;;;;87.80;6.88;;;;;;;5.00;100.00;99006.63;5001138;28;20049;-79
2022/01/09 03:50:42;;;;;;;82.07;6.50;;;;;;;5.00;100.00;99012.94;5011962;28;20122;-79
2022/01/09 03:53:11;;;;;;;70.97;6.47;;;;;;;5.00;100.00;99018.34;4992865;28;20068;-79
2022/01/09 03:55:37;;;;;;;85.00;6.90;;;;;;;4.99;100.00;99037.47;5010856;28;20058;-79
2022/01/09 03:58:02;;;;;;;88.47;6.03;;;;;;;4.87;100.00;99017.66;4997021;28;20128;-79
2022/01/09 04:00:28;;;;;;;62.65;6.53;;;;;;;4.88;100.00;99044.66;4982045;28;20034;-79
2022/01/09 04:02:54;;;;;;;64.50;6.53;;;;;;;4.87;100.00;99044.78;5012658;28;20030;-79
2022/01/09 04:05:19;;;;;;;55.95;5.07;;;;;;;4.86;100.00;99057.47;4979861;28;20073;-79
2022/01/09 04:07:45;;;;;;;86.20;7.72;;;;;;;4.75;100.00;99057.53;5009295;28;20030;-79
2022/01/09 04:10:10;;;;;;;65.45;5.90;;;;;;;4.78;100.00;99068.97;4997354;28;20039;-79
2022/01/09 04:12:47;;;;;;;54.22;4.38;;;;;;;4.72;100.00;99065.91;5008116;28;20110;-79
2022/01/09 04:15:14;;;;;;;42.70;4.40;;;;;;;4.71;100.00;99080.47;4997004;28;20037;-79
2022/01/09 04:17:54;;;;;;;56.38;6.03;;;;;;;4.67;100.00;99082.56;4997957;28;20605;-79
2022/01/09 04:20:30;;;;;;;55.85;5.15;;;;;;;4.70;100.00;99095.00;5007606;28;20772;-79
2022/01/09 04:22:57;;;;;;;47.75;5.18;;;;;;;4.65;100.00;99097.25;5010680;28;20038;-79
2022/01/09 04:25:23;;;;;;;64.32;5.50;;;;;;;4.60;100.00;99103.88;4987510;28;20058;-79
2022/01/09 04:27:50;;;;;;;57.75;4.50;;;;;;;4.78;100.00;99114.19;5009060;28;20471;-79
2022/01/09 04:30:16;;;;;;;58.05;4.50;;;;;;;4.76;100.00;99127.88;5005296;28;20038;-79
2022/01/09 04:32:42;;;;;;;61.10;4.72;;;;;;;4.69;100.00;99118.56;5011674;28;20038;-79
2022/01/09 04:35:09;;;;;;;52.83;5.03;;;;;;;4.64;100.00;99128.91;5018572;28;20362;-79
2022/01/09 04:37:35;;;;;;;50.15;4.60;;;;;;;4.67;100.00;99142.19;5016962;28;20046;-79
2022/01/09 04:40:02;;;;;;;59.97;3.25;;;;;;;4.63;100.00;99143.44;4998823;28;20034;-79
2022/01/09 04:42:36;;;;;;;50.30;5.03;;;;;;;4.65;100.00;99156.88;4998177;28;20050;-79
2022/01/09 04:45:01;;;;;;;61.22;4.47;;;;;;;4.63;100.00;99158.84;5002508;28;20031;-79
2022/01/09 04:47:27;;;;;;;40.40;4.40;;;;;;;4.49;100.00;99163.53;5015214;28;20531;-78
2022/01/09 04:49:52;;;;;;;49.60;3.90;;;;;;;4.42;100.00;99160.47;5007703;28;20037;-79
2022/01/09 04:52:22;;;;;;;44.05;3.88;;;;;;;4.42;100.00;99174.00;5018557;28;20466;-79
2022/01/09 04:54:47;;;;;;;47.97;3.78;;;;;;;4.45;100.00;99186.47;5020072;28;20532;-79
2022/01/09 04:57:13;;;;;;;44.60;3.97;;;;;;;4.41;100.00;99184.97;5012250;28;20058;-79
2022/01/09 04:59:39;;;;;;;45.13;4.25;;;;;;;4.39;100.00;99197.78;5010799;28;20041;-79
2022/01/09 05:02:05;;;;;;;34.20;3.22;;;;;;;4.40;100.00;99202.22;5017270;28;20476;-79
2022/01/09 05:04:30;;;;;;;49.55;4.75;;;;;;;4.42;100.00;99205.66;4998803;28;20553;-79
2022/01/09 05:06:56;;;;;;;57.63;4.45;;;;;;;4.37;100.00;99205.19;5009919;28;20066;-79
2022/01/09 05:09:21;;;;;;;38.50;3.35;;;;;;;4.42;100.00;99221.94;5003656;28;20540;-79
2022/01/09 05:11:47;;;;;;;39.10;3.20;;;;;;;4.40;100.00;99223.91;5016999;28;20107;-79
2022/01/09 05:14:12;;;;;;;41.72;4.13;;;;;;;4.40;100.00;99232.03;5015454;28;20496;-79
2022/01/09 05:16:44;;;;;;;33.85;4.75;;;;;;;4.33;100.00;99228.06;4998431;28;20042;-79
2022/01/09 05:19:17;;;;;;;21.83;3.97;;;;;;;4.35;100.00;99240.53;5010455;28;20188;-79
2022/01/09 05:21:44;;;;;;;53.05;4.20;;;;;;;4.39;100.00;99243.84;5019149;28;20063;-79
2022/01/09 05:24:09;;;;;;;25.50;3.75;;;;;;;4.34;100.00;99252.34;5017112;28;20046;-79
2022/01/09 05:26:35;;;;;;;34.80;4.15;;;;;;;4.34;100.00;99256.91;5008252;28;20156;-79
2022/01/09 05:29:00;;;;;;;61.38;3.92;;;;;;;4.33;100.00;99263.28;5002997;28;20045;-79
2022/01/09 05:31:26;;;;;;;33.17;5.28;;;;;;;4.32;100.00;99284.13;5016978;28;20070;-79
2022/01/09 05:33:51;;;;;;;30.65;3.13;;;;;;;4.19;100.00;99273.38;5001627;28;20040;-79
2022/01/09 05:36:17;;;;;;;29.45;4.00;;;;;;;4.25;100.00;99299.13;5001397;28;20041;-79
2022/01/09 05:38:42;;;;;;;52.28;3.47;;;;;;;4.24;100.00;99289.28;5009645;28;20038;-79
2022/01/09 05:41:08;;;;;;;53.20;3.92;;;;;;;4.22;100.00;99289.38;5009691;28;20046;-79
2022/01/09 05:43:33;;;;;;;43.60;4.65;;;;;;;4.16;100.00;99289.00;5006941;28;20034;-79
2022/01/09 05:45:58;;;;;;;37.53;3.75;;;;;;;4.16;100.00;99291.72;5001307;28;20022;-79
2022/01/09 05:48:24;;;;;;;44.67;4.00;;;;;;;4.12;100.00;99299.22;5010875;28;20061;-79
2022/01/09 05:50:50;;;;;;;38.03;2.47;;;;;;;4.20;100.00;99304.06;4997058;28;20057;-79
2022/01/09 05:53:16;;;;;;;63.72;5.20;;;;;;;4.18;100.00;99309.59;5008368;28;20525;-79
2022/01/09 05:55:42;;;;;;;43.55;4.60;;;;;;;4.18;100.00;99309.59;5014694;28;20049;-79
2022/01/09 05:58:07;;;;;;;42.88;3.88;;;;;;;4.24;100.00;99313.66;5003073;28;20375;-79
2022/01/09 06:00:33;;;;;;;55.97;5.35;;;;;;;4.17;100.00;99309.72;5006033;28;20427;-79
2022/01/09 06:02:59;;;;;;;32.45;3.53;;;;;;;4.10;100.00;99317.44;4989592;28;20466;-79
2022/01/09 06:05:25;;;;;;;24.10;3.17;;;;;;;4.12;100.00;99325.47;5003130;28;20355;-79
2022/01/09 06:07:50;;;;;;;44.40;4.30;;;;;;;4.08;100.00;99329.38;5005662;28;20034;-79
2022/01/09 06:10:15;;;;;;;26.55;3.05;;;;;;;4.02;100.00;99333.44;5017732;28;20026;-79
2022/01/09 06:12:41;;;;;;;30.90;5.38;;;;;;;4.02;100.00;99339.69;5006192;28;20042;-79
2022/01/09 06:15:08;;;;;;;35.03;3.05;;;;;;;3.93;100.00;99344.94;5020757;28;20026;-79
2022/01/09 06:17:38;;;;;;;32.60;3.33;;;;;;;3.85;100.00;99342.81;4999749;28;20109;-79
2022/01/09 06:20:05;;;;;;;36.65;3.95;;;;;;;3.90;100.00;99354.16;5001546;28;20034;-79
2022/01/09 06:22:30;;;;;;;33.15;3.95;;;;;;;3.97;100.00;99362.69;5006247;28;20093;-79
2022/01/09 06:24:56;;;;;;;44.45;5.18;;;;;;;3.91;100.00;99355.03;5016504;28;20070;-79
2022/01/09 06:27:21;;;;;;;45.03;4.50;;;;;;;3.86;100.00;99358.94;4997857;28;20042;-79
2022/01/09 06:29:47;;;;;;;45.80;4.80;;;;;;;3.88;100.00;99366.09;5012000;28;20065;-79
2022/01/09 06:32:13;;;;;;;39.20;4.60;;;;;;;3.88;100.00;99360.69;5005360;28;20060;-79
2022/01/09 06:34:41;;;;;;;44.75;3.75;;;;;;;3.88;100.00;99376.94;5014191;28;20034;-79
2022/01/09 06:37:07;;;;;;;32.50;3.85;;;;;;;3.97;100.00;99376.25;5007116;28;20453;-79
2022/01/09 06:39:32;;;;;;;40.20;3.92;;;;;;;3.98;100.00;99386.94;5015976;28;20038;-79
2022/01/09 06:41:58;;;;;;;46.53;4.38;;;;;;;4.10;100.00;99387.88;5013473;28;20709;-79
2022/01/09 06:44:23;;;;;;;52.85;5.40;;;;;;;4.05;100.00;99393.63;5013799;28;20033;-79
2022/01/09 06:46:48;;;;;;;56.42;5.53;;;;;;;4.01;100.00;99394.81;4984709;28;20072;-79
2022/01/09 06:49:14;;;;;;;43.85;4.30;;;;;;;3.96;100.00;99396.16;4987638;28;20073;-79
2022/01/09 06:51:40;;;;;;;56.92;4.38;;;;;;;3.99;100.00;99399.50;4986521;28;20045;-79
2022/01/09 06:54:05;;;;;;;49.08;4.53;;;;;;;3.99;100.00;99418.44;5015369;28;20026;-79
2022/01/09 06:56:31;;;;;;;59.80;4.78;;;;;;;3.98;100.00;99415.84;5012319;28;20038;-79
2022/01/09 06:58:56;;;;;;;48.03;3.75;;;;;;;4.01;100.00;99412.91;5014752;28;20133;-79
2022/01/09 07:01:22;;;;;;;30.20;3.22;;;;;;;4.11;100.00;99415.81;5012642;28;20026;-78
2022/01/09 07:03:47;;;;;;;30.20;4.05;;;;;;;4.16;100.00;99425.28;5016550;28;20156;-79
2022/01/09 07:06:13;;;;;;;33.03;3.45;;;;;;;4.09;100.00;99421.34;5000377;28;20038;-79
2022/01/09 07:08:38;;;;;;;47.47;4.43;;;;;;;4.07;100.00;99434.13;4997528;28;20513;-80
2022/01/09 07:11:04;;;;;;;42.45;3.58;;;;;;;4.11;100.00;99442.88;5015411;28;20043;-79
2022/01/09 07:13:30;;;;;;;28.67;3.92;;;;;;;4.05;100.00;99438.81;5001830;28;20038;-79
2022/01/09 07:15:56;;;;;;;37.17;3.97;;;;;;;4.10;100.00;99452.88;5011152;28;20134;-79
2022/01/09 07:18:22;;;;;;;44.20;3.47;;;;;;;4.09;100.00;99461.09;5005430;28;20026;-79
2022/01/09 07:20:48;;;;;;;43.88;3.25;;;;;;;4.15;100.00;99471.44;4988704;28;20039;-79
2022/01/09 07:23:13;;;;;;;51.67;4.70;;;;;;;4.06;100.00;99475.72;4981948;28;20026;-79
2022/01/09 07:25:39;;;;;;;35.85;4.90;;;;;;;4.06;100.00;99467.59;5006885;28;20437;-79
2022/01/09 07:28:04;;;;;;;48.13;4.35;;;;;;;4.08;100.00;99470.19;5009780;28;20034;-79
2022/01/09 07:30:30;;;;;;;47.08;5.05;;;;;;;4.07;100.00;99479.28;5010360;28;20049;-79
2022/01/09 07:32:56;;;;;;;57.80;5.85;;;;;;;4.04;100.00;99488.53;5016540;28;20026;-79
2022/01/09 07:35:23;;;;;;;42.78;3.85;;;;;;;4.10;100.00;99489.91;5013742;28;20145;-78
2022/01/09 07:37:48;;;;;;;43.90;4.13;;;;;;;4.10;100.00;99492.59;5011476;28;20049;-79
2022/01/09 07:40:14;;;;;;;58.05;3.33;;;;;;;4.14;100.00;99503.09;5015930;28;20038;-79
2022/01/09 07:42:40;;;;;;;39.67;4.95;;;;;;;4.16;100.00;99500.28;5001725;28;20034;-80
2022/01/09 07:45:07;;;;;;;49.08;4.38;;;;;;;4.11;100.00;99503.31;5013922;28;20193;-78
2022/01/09 07:47:35;;;;;;;38.67;3.40;;;;;;;4.11;100.00;99513.31;5012205;28;20029;-79
2022/01/09 07:50:01;;;;;;;35.72;2.90;;;;;;;4.13;100.00;99514.94;5012989;28;20039;-80
2022/01/09 07:52:27;;;;;;;41.90;3.47;;;;;;;4.10;100.00;99512.44;5004741;28;20094;-80
2022/01/09 07:54:52;;;;;;;41.75;4.22;;;;;;;4.12;100.00;99513.19;4997718;28;20046;-79
2022/01/09 07:57:18;;;;;;;23.70;3.50;;;;;;;4.13;100.00;99516.75;5002327;28;20053;-79
2022/01/09 07:59:43;;;;;;;30.92;3.20;;;;;;;4.08;100.00;99530.63;4991591;28;20062;-79
2022/01/09 08:02:09;;;;;;;49.03;4.15;;;;;;;4.12;100.00;99529.44;5010415;28;20355;-80
2022/01/09 08:04:35;;;;;;;46.40;3.65;;;;;;;4.21;100.00;99536.00;4984325;28;20056;-80
2022/01/09 08:07:01;;;;;;;35.40;3.40;;;;;;;4.14;100.00;99532.03;5005989;28;20391;-79
2022/01/09 08:09:26;;;;;;;40.38;4.05;;;;;;;4.04;100.00;99545.41;4990663;28;20049;-80
2022/01/09 08:11:52;;;;;;;27.80;4.28;;;;;;;3.93;100.00;99534.47;5010430;28;20520;-79
2022/01/09 08:14:19;;;;;;;32.58;3.15;;;;;;;3.96;100.00;99545.09;4995492;28;20069;-79
2022/01/09 08:16:45;;;;;;;35.90;3.83;;;;;;;3.97;100.00;99549.53;4998428;28;20048;-80
2022/01/09 08:19:11;;;;;;;47.92;3.65;;;;;;;3.94;100.00;99553.31;4986325;28;20038;-80
2022/01/09 08:21:37;;;;;;;36.08;3.35;;;;;;;3.94;100.00;99556.03;4981426;28;20049;-80
2022/01/09 08:24:04;;;;;;;32.92;2.72;;;;;;;3.87;100.00;99562.88;5005353;28;20385;-80
2022/01/09 08:26:30;;;;;;;36.00;4.15;;;;;;;3.99;100.00;99574.66;4998661;28;20057;-80
2022/01/09 08:28:56;;;;;;;41.08;4.40;;;;;;;3.97;100.00;99573.91;4983129;28;20046;-81
2022/01/09 08:31:21;;;;;;;46.63;4.18;;;;;;;3.93;100.00;99580.50;4995099;28;20545;-78
2022/01/09 08:33:47;;;;;;;27.55;4.53;;;;;;;3.96;100.00;99575.72;4999227;28;20019;-80
2022/01/09 08:36:13;;;;;;;40.95;3.03;;;;;;;3.93;100.00;99572.38;5016847;28;20072;-78
2022/01/09 08:38:39;;;;;;;34.60;4.25;;;;;;;3.95;100.00;99586.69;5010948;28;20066;-79
2022/01/09 08:41:05;;;;;;;43.58;3.10;;;;;;;3.97;100.00;99593.72;4996584;28;20030;-78
2022/01/09 08:43:31;;;;;;;34.55;2.53;;;;;;;3.98;100.00;99591.88;5014948;28;20048;-79
2022/01/09 08:45:57;;;;;;;24.52;3.08;;;;;;;4.02;100.00;99601.53;4985396;28;20038;-80
2022/01/09 08:48:23;;;;;;;21.08;2.47;;;;;;;4.05;100.00;99596.75;4983148;28;20426;-81
2022/01/09 08:50:48;;;;;;;25.95;2.97;;;;;;;4.09;100.00;99594.66;4979833;28;20042;-80
2022/01/09 08:53:15;;;;;;;27.02;2.90;;;;;;;4.11;100.00;99589.16;4997467;28;20052;-80
2022/01/09 08:55:41;;;;;;;25.65;2.50;;;;;;;4.09;100.00;99600.09;5000354;28;20465;-80
2022/01/09 08:58:06;;;;;;;17.75;2.08;;;;;;;4.14;100.00;99616.00;4980469;28;20042;-80
2022/01/09 09:00:32;;;;;;;29.08;2.90;;;;;;;4.13;100.00;99611.56;4979584;28;20033;-80
2022/01/09 09:02:57;;;;;;;30.85;3.35;;;;;;;4.17;100.00;99610.38;4995180;28;20034;-79
2022/01/09 09:05:23;;;;;;;17.92;2.30;;;;;;;4.21;100.00;99623.59;5007434;28;20045;-80
2022/01/09 09:07:48;;;;;;;42.03;3.28;;;;;;;4.18;100.00;99621.09;5000024;28;20026;-80
2022/01/09 09:10:13;;;;;;;38.35;3.40;;;;;;;4.19;100.00;99625.53;5002359;28;20061;-79
2022/01/09 09:12:39;;;;;;;33.17;5.10;;;;;;;4.23;100.00;99632.47;5001753;28;20405;-79
2022/01/09 09:15:05;;;;;;;26.33;2.28;;;;;;;4.25;100.00;99637.78;5001793;28;20026;-81
2022/01/09 09:17:32;;;;;;;26.63;3.17;;;;;;;4.15;100.00;99631.25;5010756;28;20125;-80
2022/01/09 09:19:58;;;;;;;41.35;4.03;;;;;;;4.17;100.00;99637.47;5013747;28;20045;-80
2022/01/09 09:22:24;;;;;;;30.70;3.65;;;;;;;4.14;100.00;99638.53;5016483;28;20030;-79
2022/01/09 09:24:50;;;;;;;40.13;4.03;;;;;;;4.19;100.00;99647.19;5005191;28;20034;-79
2022/01/09 09:27:18;;;;;;;39.22;4.93;;;;;;;4.21;100.00;99655.22;4990880;28;20033;-79
2022/01/09 09:29:44;;;;;;;35.13;4.10;;;;;;;4.27;100.00;99665.63;5001436;28;20509;-79
2022/01/09 09:32:09;;;;;;;35.22;4.75;;;;;;;4.32;100.00;99662.56;5001929;28;20050;-78
2022/01/09 09:34:34;;;;;;;29.90;3.53;;;;;;;4.42;100.00;99669.06;5001455;28;20033;-80
2022/01/09 09:37:00;;;;;;;46.80;4.30;;;;;;;4.49;100.00;99674.88;5018060;28;20038;-79
2022/01/09 09:39:25;;;;;;;33.50;4.50;;;;;;;4.58;100.00;99672.38;4993943;28;20097;-79
2022/01/09 09:41:51;;;;;;;31.85;3.22;;;;;;;4.55;100.00;99667.16;5008768;28;20462;-78
2022/01/09 09:44:16;;;;;;;31.27;3.10;;;;;;;4.73;100.00;99683.94;5002162;28;20030;-78
2022/01/09 09:46:49;;;;;;;36.10;4.50;;;;;;;4.78;100.00;99686.31;5002393;28;20050;-79
2022/01/09 09:49:15;;;;;;;21.63;2.93;;;;;;;4.73;100.00;99686.63;5014778;28;20028;-79
2022/01/09 09:51:41;;;;;;;24.85;3.45;;;;;;;4.62;100.00;99688.41;5001730;28;20041;-78
2022/01/09 09:54:07;;;;;;;40.70;4.25;;;;;;;4.50;100.00;99692.88;5005813;28;20018;-78
2022/01/09 09:56:32;;;;;;;40.35;3.42;;;;;;;4.45;100.00;99689.66;5006470;28;20057;-79
2022/01/09 09:58:59;;;;;;;46.65;4.43;;;;;;;4.54;100.00;99695.28;5002991;28;20548;-78
2022/01/09 10:01:30;;;;;;;36.65;3.40;;;;;;;4.51;100.00;99700.03;5014367;28;20040;-79
2022/01/09 10:04:05;;;;;;;32.90;3.45;;;;;;;4.53;100.00;99703.50;4994191;28;20018;-79
2022/01/09 10:06:45;;;;;;;32.13;3.88;;;;;;;4.58;100.00;99704.03;4988686;28;20108;-78
2022/01/09 10:09:13;;;;;;;33.65;3.72;;;;;;;4.64;100.00;99710.84;5007559;28;20038;-78
2022/01/09 10:11:55;;;;;;;30.13;4.72;;;;;;;4.65;100.00;99704.47;5012459;28;20042;-78
2022/01/09 10:14:26;;;;;;;26.35;4.30;;;;;;;4.65;100.00;99715.31;5004599;28;20426;-79
2022/01/09 10:17:28;;;;;;;29.02;3.50;;;;;;;4.71;100.00;99714.84;5012818;28;20030;-81
2022/01/09 10:20:03;;;;;;;33.65;4.22;;;;;;;4.70;100.00;99716.69;5027183;28;20037;-80
2022/01/09 10:22:37;;;;;;;32.00;3.53;;;;;;;4.79;100.00;99726.88;5013997;28;20058;-79
2022/01/09 10:25:25;;;;;;;24.45;3.45;;;;;;;4.74;100.00;99722.78;5006611;28;20527;-79
2022/01/09 10:28:03;;;;;;;34.45;4.78;;;;;;;4.74;100.00;99718.22;4996094;28;20489;-79
2022/01/09 10:30:39;;;;;;;35.95;5.38;;;;;;;4.73;100.00;99731.88;4995611;28;20041;-80
2022/01/09 10:33:14;;;;;;;44.53;3.92;;;;;;;4.72;100.00;99722.00;4995030;28;20100;-79
2022/01/09 10:35:44;;;;;;;35.90;4.03;;;;;;;4.65;100.00;99728.84;5008902;28;20037;-80
2022/01/09 10:38:13;;;;;;;41.42;4.25;;;;;;;4.60;100.00;99731.91;5007299;28;20046;-80
2022/01/09 10:40:41;;;;;;;32.63;3.05;;;;;;;4.73;100.00;99730.03;5013700;28;20048;-79
2022/01/09 10:43:14;;;;;;;34.80;3.47;;;;;;;4.95;100.00;99717.59;5004166;28;20034;-79
2022/01/09 10:45:42;;;;;;;22.50;3.30;;;;;;;5.03;100.00;99733.28;4996891;28;20089;-80
2022/01/09 10:48:16;;;;;;;31.38;3.65;;;;;;;5.02;100.00;99747.81;4990384;28;20081;-80
2022/01/09 10:50:43;;;;;;;33.65;3.28;;;;;;;4.93;100.00;99743.97;5010912;28;20037;-81
2022/01/09 10:53:17;;;;;;;28.70;4.68;;;;;;;5.02;100.00;99745.13;5013219;28;20058;-81
2022/01/09 10:55:45;;;;;;;50.95;4.85;;;;;;;4.97;100.00;99743.63;5016836;28;20502;-81
2022/01/09 10:58:19;;;;;;;42.28;4.75;;;;;;;5.04;100.00;99752.19;5015844;28;20037;-81
2022/01/09 11:00:46;;;;;;;53.33;5.63;;;;;;;4.93;100.00;99755.66;5007976;28;20061;-80
2022/01/09 11:03:12;;;;;;;33.95;5.25;;;;;;;4.94;100.00;99754.69;5005046;28;20033;-79
2022/01/09 11:05:38;;;;;;;47.50;5.40;;;;;;;5.08;100.00;99748.28;5010735;28;20053;-80
2022/01/09 11:08:04;;;;;;;29.33;4.72;;;;;;;5.01;100.00;99756.97;5005455;28;20027;-80
2022/01/09 11:10:31;;;;;;;42.28;4.70;;;;;;;5.03;100.00;99769.41;5009126;28;20027;-79
2022/01/09 11:12:59;;;;;;;37.08;5.28;;;;;;;5.03;100.00;99763.13;5012932;28;20034;-79
2022/01/09 11:15:29;;;;;;;39.63;4.90;;;;;;;5.11;100.00;99774.28;5022392;28;20065;-79
2022/01/09 11:17:58;;;;;;;41.28;4.22;;;;;;;5.10;100.00;99773.44;5020531;28;20061;-78
2022/01/09 11:20:25;;;;;;;33.95;4.88;;;;;;;5.06;100.00;99782.75;5014090;28;20033;-79
2022/01/09 11:22:54;;;;;;;26.40;4.88;;;;;;;5.02;100.00;99764.09;5013304;28;20038;-80
2022/01/09 11:25:37;;;;;;;27.08;5.38;;;;;;;5.07;100.00;99789.06;5010855;28;20034;-80